Aviation Digital Data Service (ADDS)

Output produced by METARs form (1646 UTC 20 July 2017)
found at http://aviationweather.gov/adds/metars/
 
KCRG 201133Z 2012/2112 31004KT P6SM SCT020 SCT250 
     FM201600 10008KT P6SM SCT030 BKN200 
     FM210200 19004KT P6SM SCT150